sensor_id;sensor_type;location;lat;lon;timestamp;pressure;altitude;pressure_sealevel;temperature;humidity
75627;BME280;67372;49.404;11.034;2023-04-22T00:02:22;97640.59;;;10.00;63.68
75627;BME280;67372;49.404;11.034;2023-04-22T00:04:48;97641.41;;;10.00;63.47
75627;BME280;67372;49.404;11.034;2023-04-22T00:07:15;97628.31;;;9.99;63.30
75627;BME280;67372;49.404;11.034;2023-04-22T00:09:42;97629.94;;;10.00;63.60
75627;BME280;67372;49.404;11.034;2023-04-22T00:12:09;97630.16;;;9.98;63.59
75627;BME280;67372;49.404;11.034;2023-04-22T00:14:35;97634.69;;;9.98;63.71
75627;BME280;67372;49.404;11.034;2023-04-22T00:17:02;97638.38;;;9.97;64.02
75627;BME280;67372;49.404;11.034;2023-04-22T00:19:28;97638.63;;;9.95;64.05
75627;BME280;67372;49.404;11.034;2023-04-22T00:21:54;97638.00;;;9.93;64.18
75627;BME280;67372;49.404;11.034;2023-04-22T00:24:20;97634.38;;;9.88;63.73
75627;BME280;67372;49.404;11.034;2023-04-22T00:26:47;97634.72;;;9.79;63.97
75627;BME280;67372;49.404;11.034;2023-04-22T00:29:13;97636.22;;;9.75;64.86
75627;BME280;67372;49.404;11.034;2023-04-22T00:31:40;97633.41;;;9.70;65.17
75627;BME280;67372;49.404;11.034;2023-04-22T00:34:06;97629.53;;;9.66;64.66
75627;BME280;67372;49.404;11.034;2023-04-22T00:36:32;97625.47;;;9.64;64.93
75627;BME280;67372;49.404;11.034;2023-04-22T00:38:59;97628.59;;;9.61;65.05
75627;BME280;67372;49.404;11.034;2023-04-22T00:41:26;97623.50;;;9.59;65.37
75627;BME280;67372;49.404;11.034;2023-04-22T00:43:53;97627.19;;;9.58;64.78
75627;BME280;67372;49.404;11.034;2023-04-22T00:46:19;97637.84;;;9.58;65.73
75627;BME280;67372;49.404;11.034;2023-04-22T00:48:46;97639.69;;;9.58;65.75
75627;BME280;67372;49.404;11.034;2023-04-22T00:51:12;97642.00;;;9.54;65.29
75627;BME280;67372;49.404;11.034;2023-04-22T00:53:38;97635.50;;;9.50;66.04
75627;BME280;67372;49.404;11.034;2023-04-22T00:56:05;97637.56;;;9.48;64.88
75627;BME280;67372;49.404;11.034;2023-04-22T00:58:32;97652.13;;;9.45;65.49
75627;BME280;67372;49.404;11.034;2023-04-22T01:00:58;97638.44;;;9.42;65.78
75627;BME280;67372;49.404;11.034;2023-04-22T01:03:26;97644.22;;;9.39;66.26
75627;BME280;67372;49.404;11.034;2023-04-22T01:05:52;97641.19;;;9.35;68.71
75627;BME280;67372;49.404;11.034;2023-04-22T01:08:19;97640.59;;;9.33;66.39
75627;BME280;67372;49.404;11.034;2023-04-22T01:10:45;97639.78;;;9.33;66.12
75627;BME280;67372;49.404;11.034;2023-04-22T01:13:11;97637.13;;;9.33;65.90
75627;BME280;67372;49.404;11.034;2023-04-22T01:15:38;97643.84;;;9.35;66.58
75627;BME280;67372;49.404;11.034;2023-04-22T01:18:05;97636.91;;;9.34;66.11
75627;BME280;67372;49.404;11.034;2023-04-22T01:20:31;97644.06;;;9.34;66.91
75627;BME280;67372;49.404;11.034;2023-04-22T01:23:01;97637.94;;;9.33;67.25
75627;BME280;67372;49.404;11.034;2023-04-22T01:25:28;97641.41;;;9.34;66.10
75627;BME280;67372;49.404;11.034;2023-04-22T01:27:55;97640.38;;;9.35;67.05
75627;BME280;67372;49.404;11.034;2023-04-22T01:30:22;97637.50;;;9.36;66.54
75627;BME280;67372;49.404;11.034;2023-04-22T01:32:48;97640.97;;;9.37;66.24
75627;BME280;67372;49.404;11.034;2023-04-22T01:35:15;97640.75;;;9.38;66.37
75627;BME280;67372;49.404;11.034;2023-04-22T01:37:41;97638.66;;;9.40;66.31
75627;BME280;67372;49.404;11.034;2023-04-22T01:40:08;97630.09;;;9.38;66.41
75627;BME280;67372;49.404;11.034;2023-04-22T01:42:35;97632.97;;;9.37;66.94
75627;BME280;67372;49.404;11.034;2023-04-22T01:45:02;97635.06;;;9.35;66.32
75627;BME280;67372;49.404;11.034;2023-04-22T01:47:29;97638.53;;;9.35;67.07
75627;BME280;67372;49.404;11.034;2023-04-22T01:49:55;97620.13;;;9.34;67.12
75627;BME280;67372;49.404;11.034;2023-04-22T01:52:21;97626.47;;;9.33;67.49
75627;BME280;67372;49.404;11.034;2023-04-22T01:54:48;97635.72;;;9.30;67.08
75627;BME280;67372;49.404;11.034;2023-04-22T01:57:15;97634.09;;;9.29;67.36
75627;BME280;67372;49.404;11.034;2023-04-22T01:59:41;97645.56;;;9.30;66.77
75627;BME280;67372;49.404;11.034;2023-04-22T02:02:08;97651.69;;;9.30;67.36
75627;BME280;67372;49.404;11.034;2023-04-22T02:04:34;97644.97;;;9.28;67.90
75627;BME280;67372;49.404;11.034;2023-04-22T02:07:01;97642.97;;;9.23;67.79
75627;BME280;67372;49.404;11.034;2023-04-22T02:09:27;97648.94;;;9.18;67.82
75627;BME280;67372;49.404;11.034;2023-04-22T02:11:53;97646.72;;;9.15;67.38
75627;BME280;67372;49.404;11.034;2023-04-22T02:14:19;97646.50;;;9.17;66.98
75627;BME280;67372;49.404;11.034;2023-04-22T02:16:46;97651.81;;;9.17;67.40
75627;BME280;67372;49.404;11.034;2023-04-22T02:19:12;97648.34;;;9.16;67.80
75627;BME280;67372;49.404;11.034;2023-04-22T02:21:39;97654.13;;;9.13;68.05
75627;BME280;67372;49.404;11.034;2023-04-22T02:24:05;97650.66;;;9.13;67.44
75627;BME280;67372;49.404;11.034;2023-04-22T02:26:31;97661.28;;;9.13;67.42
75627;BME280;67372;49.404;11.034;2023-04-22T02:28:58;97651.31;;;9.08;67.27
75627;BME280;67372;49.404;11.034;2023-04-22T02:31:24;97657.88;;;9.06;68.56
75627;BME280;67372;49.404;11.034;2023-04-22T02:33:50;97655.44;;;9.04;67.61
75627;BME280;67372;49.404;11.034;2023-04-22T02:36:17;97653.59;;;9.05;67.74
75627;BME280;67372;49.404;11.034;2023-04-22T02:38:43;97658.69;;;9.06;67.58
75627;BME280;67372;49.404;11.034;2023-04-22T02:41:09;97659.50;;;9.07;68.40
75627;BME280;67372;49.404;11.034;2023-04-22T02:43:36;97649.91;;;9.06;67.97
75627;BME280;67372;49.404;11.034;2023-04-22T02:46:02;97662.63;;;9.04;68.37
75627;BME280;67372;49.404;11.034;2023-04-22T02:48:28;97663.44;;;9.04;68.06
75627;BME280;67372;49.404;11.034;2023-04-22T02:50:55;97660.19;;;9.02;68.00
75627;BME280;67372;49.404;11.034;2023-04-22T02:53:21;97661.22;;;9.01;68.08
75627;BME280;67372;49.404;11.034;2023-04-22T02:55:47;97661.44;;;9.00;67.60
75627;BME280;67372;49.404;11.034;2023-04-22T02:58:14;97661.63;;;8.98;68.65
75627;BME280;67372;49.404;11.034;2023-04-22T03:00:40;97662.66;;;8.97;69.09
75627;BME280;67372;49.404;11.034;2023-04-22T03:03:06;97659.19;;;8.97;68.88
75627;BME280;67372;49.404;11.034;2023-04-22T03:05:33;97654.31;;;8.93;69.15
75627;BME280;67372;49.404;11.034;2023-04-22T03:07:59;97658.81;;;8.93;68.48
75627;BME280;67372;49.404;11.034;2023-04-22T03:10:25;97655.94;;;8.95;68.93
75627;BME280;67372;49.404;11.034;2023-04-22T03:12:52;97658.59;;;8.95;68.26
75627;BME280;67372;49.404;11.034;2023-04-22T03:15:18;97658.00;;;8.92;68.09
75627;BME280;67372;49.404;11.034;2023-04-22T03:17:47;97657.41;;;8.90;68.13
75627;BME280;67372;49.404;11.034;2023-04-22T03:20:13;97660.28;;;8.89;68.55
75627;BME280;67372;49.404;11.034;2023-04-22T03:22:39;97660.13;;;8.84;68.69
75627;BME280;67372;49.404;11.034;2023-04-22T03:25:06;97662.66;;;8.79;68.93
75627;BME280;67372;49.404;11.034;2023-04-22T03:27:32;97657.16;;;8.74;68.53
75627;BME280;67372;49.404;11.034;2023-04-22T03:29:59;97657.00;;;8.69;68.44
75627;BME280;67372;49.404;11.034;2023-04-22T03:32:25;97656.84;;;8.64;68.52
75627;BME280;67372;49.404;11.034;2023-04-22T03:34:51;97650.91;;;8.61;68.49
75627;BME280;67372;49.404;11.034;2023-04-22T03:37:18;97656.91;;;8.57;69.23
75627;BME280;67372;49.404;11.034;2023-04-22T03:39:44;97649.34;;;8.54;68.65
75627;BME280;67372;49.404;11.034;2023-04-22T03:42:12;97656.75;;;8.52;68.92
75627;BME280;67372;49.404;11.034;2023-04-22T03:44:39;97659.00;;;8.48;68.97
75627;BME280;67372;49.404;11.034;2023-04-22T03:47:06;97655.34;;;8.43;68.96
75627;BME280;67372;49.404;11.034;2023-04-22T03:49:32;97656.22;;;8.37;69.32
75627;BME280;67372;49.404;11.034;2023-04-22T03:51:59;97651.13;;;8.35;68.98
75627;BME280;67372;49.404;11.034;2023-04-22T03:54:25;97659.31;;;8.34;69.09
75627;BME280;67372;49.404;11.034;2023-04-22T03:56:52;97653.38;;;8.31;69.01
75627;BME280;67372;49.404;11.034;2023-04-22T03:59:18;97658.09;;;8.29;69.04
75627;BME280;67372;49.404;11.034;2023-04-22T04:01:45;97658.50;;;8.26;68.87
75627;BME280;67372;49.404;11.034;2023-04-22T04:04:12;97663.00;;;8.26;69.57
75627;BME280;67372;49.404;11.034;2023-04-22T04:06:38;97652.81;;;8.23;69.25
75627;BME280;67372;49.404;11.034;2023-04-22T04:09:05;97650.38;;;8.21;69.39
75627;BME280;67372;49.404;11.034;2023-04-22T04:11:31;97653.03;;;8.21;69.54
75627;BME280;67372;49.404;11.034;2023-04-22T04:13:57;97649.78;;;8.19;69.44
75627;BME280;67372;49.404;11.034;2023-04-22T04:16:24;97649.78;;;8.19;69.79
75627;BME280;67372;49.404;11.034;2023-04-22T04:18:51;97657.13;;;8.17;70.57
75627;BME280;67372;49.404;11.034;2023-04-22T04:21:17;97654.47;;;8.17;70.06
75627;BME280;67372;49.404;11.034;2023-04-22T04:23:45;97649.56;;;8.21;70.12
75627;BME280;67372;49.404;11.034;2023-04-22T04:26:12;97653.84;;;8.22;69.47
75627;BME280;67372;49.404;11.034;2023-04-22T04:28:38;97645.66;;;8.23;69.48
75627;BME280;67372;49.404;11.034;2023-04-22T04:31:04;97655.03;;;8.26;69.59
75627;BME280;67372;49.404;11.034;2023-04-22T04:33:31;97652.16;;;8.27;69.70
75627;BME280;67372;49.404;11.034;2023-04-22T04:35:58;97646.22;;;8.32;69.58
75627;BME280;67372;49.404;11.034;2023-04-22T04:38:25;97647.44;;;8.36;69.61
75627;BME280;67372;49.404;11.034;2023-04-22T04:40:51;97642.06;;;8.43;69.79
75627;BME280;67372;49.404;11.034;2023-04-22T04:43:18;97646.28;;;8.50;69.93
75627;BME280;67372;49.404;11.034;2023-04-22T04:45:44;97645.44;;;8.56;69.16
75627;BME280;67372;49.404;11.034;2023-04-22T04:48:14;97644.56;;;8.63;69.72
75627;BME280;67372;49.404;11.034;2023-04-22T04:50:41;97651.66;;;8.69;69.09
75627;BME280;67372;49.404;11.034;2023-04-22T04:53:08;97653.06;;;8.71;69.61
75627;BME280;67372;49.404;11.034;2023-04-22T04:55:35;97650.78;;;8.75;69.63
75627;BME280;67372;49.404;11.034;2023-04-22T04:58:01;97652.00;;;8.79;69.22
75627;BME280;67372;49.404;11.034;2023-04-22T05:00:28;97654.00;;;8.83;69.41
75627;BME280;67372;49.404;11.034;2023-04-22T05:02:55;97654.59;;;8.85;69.88
75627;BME280;67372;49.404;11.034;2023-04-22T05:05:21;97656.59;;;8.90;69.72
75627;BME280;67372;49.404;11.034;2023-04-22T05:07:47;97657.78;;;8.94;69.14
75627;BME280;67372;49.404;11.034;2023-04-22T05:10:14;97662.25;;;9.00;70.14
75627;BME280;67372;49.404;11.034;2023-04-22T05:12:40;97663.44;;;9.04;69.59
75627;BME280;67372;49.404;11.034;2023-04-22T05:15:07;97674.81;;;9.11;69.66
75627;BME280;67372;49.404;11.034;2023-04-22T05:17:33;97668.38;;;9.19;69.20
75627;BME280;67372;49.404;11.034;2023-04-22T05:19:59;97668.94;;;9.28;68.90
75627;BME280;67372;49.404;11.034;2023-04-22T05:22:26;97667.00;;;9.35;69.24
75627;BME280;67372;49.404;11.034;2023-04-22T05:24:52;97669.56;;;9.41;69.03
75627;BME280;67372;49.404;11.034;2023-04-22T05:27:18;97676.47;;;9.49;69.01
75627;BME280;67372;49.404;11.034;2023-04-22T05:29:45;97671.66;;;9.58;68.16
75627;BME280;67372;49.404;11.034;2023-04-22T05:32:11;97674.38;;;9.69;68.44
75627;BME280;67372;49.404;11.034;2023-04-22T05:34:38;97663.19;;;9.79;68.27
75627;BME280;67372;49.404;11.034;2023-04-22T05:37:04;97677.59;;;9.90;67.91
75627;BME280;67372;49.404;11.034;2023-04-22T05:39:30;97676.03;;;10.00;67.50
75627;BME280;67372;49.404;11.034;2023-04-22T05:41:56;97677.94;;;10.11;67.89
75627;BME280;67372;49.404;11.034;2023-04-22T05:44:23;97673.09;;;10.20;67.50
75627;BME280;67372;49.404;11.034;2023-04-22T05:46:49;97675.25;;;10.30;67.24
75627;BME280;67372;49.404;11.034;2023-04-22T05:49:15;97680.81;;;10.40;67.93
75627;BME280;67372;49.404;11.034;2023-04-22T05:51:42;97687.25;;;10.51;67.28
75627;BME280;67372;49.404;11.034;2023-04-22T05:54:08;97684.59;;;10.62;66.61
75627;BME280;67372;49.404;11.034;2023-04-22T05:56:34;97686.72;;;10.72;66.25
75627;BME280;67372;49.404;11.034;2023-04-22T05:59:01;97685.09;;;10.83;66.52
75627;BME280;67372;49.404;11.034;2023-04-22T06:01:27;97690.44;;;10.94;66.56
75627;BME280;67372;49.404;11.034;2023-04-22T06:03:53;97676.50;;;11.04;66.61
75627;BME280;67372;49.404;11.034;2023-04-22T06:06:20;97679.78;;;11.18;65.89
75627;BME280;67372;49.404;11.034;2023-04-22T06:08:47;97678.72;;;11.30;65.81
75627;BME280;67372;49.404;11.034;2023-04-22T06:11:13;97678.25;;;11.45;65.14
75627;BME280;67372;49.404;11.034;2023-04-22T06:13:40;97681.69;;;11.57;62.76
75627;BME280;67372;49.404;11.034;2023-04-22T06:16:07;97673.19;;;11.72;63.11
75627;BME280;67372;49.404;11.034;2023-04-22T06:18:38;97675.97;;;11.89;62.54
75627;BME280;67372;49.404;11.034;2023-04-22T06:21:05;97670.91;;;12.04;61.82
75627;BME280;67372;49.404;11.034;2023-04-22T06:23:31;97679.28;;;12.24;61.15
75627;BME280;67372;49.404;11.034;2023-04-22T06:25:57;97678.53;;;12.41;61.09
75627;BME280;67372;49.404;11.034;2023-04-22T06:28:24;97674.84;;;12.58;58.55
75627;BME280;67372;49.404;11.034;2023-04-22T06:30:50;97680.34;;;12.69;57.15
75627;BME280;67372;49.404;11.034;2023-04-22T06:33:16;97678.97;;;12.83;58.33
75627;BME280;67372;49.404;11.034;2023-04-22T06:35:43;97689.66;;;13.00;56.24
75627;BME280;67372;49.404;11.034;2023-04-22T06:38:09;97682.38;;;13.12;55.73
75627;BME280;67372;49.404;11.034;2023-04-22T06:40:36;97677.28;;;13.27;56.16
75627;BME280;67372;49.404;11.034;2023-04-22T06:43:02;97687.94;;;13.44;56.35
75627;BME280;67372;49.404;11.034;2023-04-22T06:45:29;97687.91;;;13.61;56.03
75627;BME280;67372;49.404;11.034;2023-04-22T06:47:55;97687.03;;;13.77;54.81
75627;BME280;67372;49.404;11.034;2023-04-22T06:50:21;97680.47;;;13.90;54.25
75627;BME280;67372;49.404;11.034;2023-04-22T06:52:48;97680.72;;;14.10;55.53
75627;BME280;67372;49.404;11.034;2023-04-22T06:55:14;97686.28;;;14.30;54.75
75627;BME280;67372;49.404;11.034;2023-04-22T06:57:41;97673.78;;;14.41;53.09
75627;BME280;67372;49.404;11.034;2023-04-22T07:00:07;97672.34;;;14.55;53.98
75627;BME280;67372;49.404;11.034;2023-04-22T07:02:34;97671.94;;;14.68;51.73
75627;BME280;67372;49.404;11.034;2023-04-22T07:05:00;97669.06;;;14.80;53.54
75627;BME280;67372;49.404;11.034;2023-04-22T07:07:27;97662.22;;;14.94;51.99
75627;BME280;67372;49.404;11.034;2023-04-22T07:09:53;97666.84;;;15.09;53.39
75627;BME280;67372;49.404;11.034;2023-04-22T07:12:19;97658.13;;;15.29;52.92
75627;BME280;67372;49.404;11.034;2023-04-22T07:14:48;97663.84;;;15.43;50.62
75627;BME280;67372;49.404;11.034;2023-04-22T07:17:14;97652.16;;;15.64;51.81
75627;BME280;67372;49.404;11.034;2023-04-22T07:19:40;97655.41;;;15.71;49.39
75627;BME280;67372;49.404;11.034;2023-04-22T07:22:07;97656.56;;;15.85;51.59
75627;BME280;67372;49.404;11.034;2023-04-22T07:24:33;97654.69;;;15.96;50.46
75627;BME280;67372;49.404;11.034;2023-04-22T07:27:00;97646.41;;;16.13;50.18
75627;BME280;67372;49.404;11.034;2023-04-22T07:29:26;97651.81;;;16.28;51.13
75627;BME280;67372;49.404;11.034;2023-04-22T07:31:53;97653.19;;;16.46;51.27
75627;BME280;67372;49.404;11.034;2023-04-22T07:34:19;97648.38;;;16.58;50.63
75627;BME280;67372;49.404;11.034;2023-04-22T07:36:46;97642.44;;;16.61;49.86
75627;BME280;67372;49.404;11.034;2023-04-22T07:39:12;97640.59;;;16.67;48.21
75627;BME280;67372;49.404;11.034;2023-04-22T07:41:38;97646.22;;;16.75;49.80
75627;BME280;67372;49.404;11.034;2023-04-22T07:44:04;97647.88;;;16.86;49.42
75627;BME280;67372;49.404;11.034;2023-04-22T07:46:31;97645.97;;;16.92;49.49
75627;BME280;67372;49.404;11.034;2023-04-22T07:48:57;97643.81;;;16.89;47.70
75627;BME280;67372;49.404;11.034;2023-04-22T07:51:23;97648.13;;;16.90;47.85
75627;BME280;67372;49.404;11.034;2023-04-22T07:53:50;97645.69;;;16.99;49.33
75627;BME280;67372;49.404;11.034;2023-04-22T07:56:16;97646.50;;;17.09;49.61
75627;BME280;67372;49.404;11.034;2023-04-22T07:58:43;97648.09;;;17.10;47.24
75627;BME280;67372;49.404;11.034;2023-04-22T08:01:09;97647.84;;;17.12;47.67
75627;BME280;67372;49.404;11.034;2023-04-22T08:03:35;97643.50;;;17.16;48.36
75627;BME280;67372;49.404;11.034;2023-04-22T08:06:02;97643.50;;;17.21;48.00
75627;BME280;67372;49.404;11.034;2023-04-22T08:08:29;97642.72;;;17.10;46.72
75627;BME280;67372;49.404;11.034;2023-04-22T08:10:55;97647.28;;;17.20;48.35
75627;BME280;67372;49.404;11.034;2023-04-22T08:13:21;97642.69;;;17.31;48.48
75627;BME280;67372;49.404;11.034;2023-04-22T08:15:48;97645.63;;;17.39;47.73
75627;BME280;67372;49.404;11.034;2023-04-22T08:18:14;97644.78;;;17.44;46.98
75627;BME280;67372;49.404;11.034;2023-04-22T08:20:41;97645.56;;;17.49;47.01
75627;BME280;67372;49.404;11.034;2023-04-22T08:23:07;97645.06;;;17.53;46.55
75627;BME280;67372;49.404;11.034;2023-04-22T08:25:33;97644.22;;;17.57;47.29
75627;BME280;67372;49.404;11.034;2023-04-22T08:28:00;97649.06;;;17.60;45.53
75627;BME280;67372;49.404;11.034;2023-04-22T08:30:26;97643.13;;;17.68;45.70
75627;BME280;67372;49.404;11.034;2023-04-22T08:32:52;97640.97;;;17.75;45.62
75627;BME280;67372;49.404;11.034;2023-04-22T08:35:19;97642.56;;;17.76;45.56
75627;BME280;67372;49.404;11.034;2023-04-22T08:37:45;97650.88;;;17.85;45.90
75627;BME280;67372;49.404;11.034;2023-04-22T08:40:12;97645.44;;;17.95;45.20
75627;BME280;67372;49.404;11.034;2023-04-22T08:42:38;97644.06;;;18.03;45.49
75627;BME280;67372;49.404;11.034;2023-04-22T08:45:05;97651.78;;;18.20;46.48
75627;BME280;67372;49.404;11.034;2023-04-22T08:47:32;97644.44;;;18.30;45.81
75627;BME280;67372;49.404;11.034;2023-04-22T08:50:01;97642.47;;;18.46;45.39
75627;BME280;67372;49.404;11.034;2023-04-22T08:52:31;97635.16;;;18.47;43.90
75627;BME280;67372;49.404;11.034;2023-04-22T08:54:58;97631.53;;;18.61;43.50
75627;BME280;67372;49.404;11.034;2023-04-22T08:57:25;97622.28;;;18.73;43.26
75627;BME280;67372;49.404;11.034;2023-04-22T08:59:52;97617.06;;;18.81;43.12
75627;BME280;67372;49.404;11.034;2023-04-22T09:02:19;97628.88;;;18.90;43.24
75627;BME280;67372;49.404;11.034;2023-04-22T09:04:48;97616.44;;;18.89;42.40
75627;BME280;67372;49.404;11.034;2023-04-22T09:07:22;97612.28;;;19.02;42.33
75627;BME280;67372;49.404;11.034;2023-04-22T09:09:49;97612.94;;;19.18;43.54
75627;BME280;67372;49.404;11.034;2023-04-22T09:12:16;97598.00;;;19.25;41.95
75627;BME280;67372;49.404;11.034;2023-04-22T09:14:42;97606.09;;;19.25;40.73
75627;BME280;67372;49.404;11.034;2023-04-22T09:17:09;97605.81;;;19.27;41.63
75627;BME280;67372;49.404;11.034;2023-04-22T09:19:36;97600.91;;;19.29;42.01
75627;BME280;67372;49.404;11.034;2023-04-22T09:22:03;97613.63;;;19.28;41.04
75627;BME280;67372;49.404;11.034;2023-04-22T09:24:29;97606.47;;;19.43;42.14
75627;BME280;67372;49.404;11.034;2023-04-22T09:26:56;97596.59;;;19.52;41.06
75627;BME280;67372;49.404;11.034;2023-04-22T09:29:28;97598.41;;;19.61;40.22
75627;BME280;67372;49.404;11.034;2023-04-22T09:31:55;97601.72;;;19.77;41.40
75627;BME280;67372;49.404;11.034;2023-04-22T09:34:22;97588.88;;;19.88;40.91
75627;BME280;67372;49.404;11.034;2023-04-22T09:36:49;97590.84;;;20.01;40.33
75627;BME280;67372;49.404;11.034;2023-04-22T09:39:16;97597.00;;;20.07;39.16
75627;BME280;67372;49.404;11.034;2023-04-22T09:41:42;97591.06;;;20.23;40.67
75627;BME280;67372;49.404;11.034;2023-04-22T09:44:16;97592.16;;;20.22;38.98
75627;BME280;67372;49.404;11.034;2023-04-22T09:46:43;97592.75;;;20.38;39.83
75627;BME280;67372;49.404;11.034;2023-04-22T09:49:10;97586.38;;;20.48;39.72
75627;BME280;67372;49.404;11.034;2023-04-22T09:51:39;97590.63;;;20.54;39.17
75627;BME280;67372;49.404;11.034;2023-04-22T09:54:07;97590.78;;;20.63;39.00
75627;BME280;67372;49.404;11.034;2023-04-22T09:56:44;97583.56;;;20.72;37.71
75627;BME280;67372;49.404;11.034;2023-04-22T09:59:10;97577.38;;;20.85;38.34
75627;BME280;67372;49.404;11.034;2023-04-22T10:01:38;97575.56;;;20.94;38.05
75627;BME280;67372;49.404;11.034;2023-04-22T10:04:05;97565.88;;;21.07;37.81
75627;BME280;67372;49.404;11.034;2023-04-22T10:06:32;97572.69;;;21.18;37.77
75627;BME280;67372;49.404;11.034;2023-04-22T10:08:58;97577.22;;;21.23;37.01
75627;BME280;67372;49.404;11.034;2023-04-22T10:11:25;97567.91;;;21.29;37.25
75627;BME280;67372;49.404;11.034;2023-04-22T10:13:51;97564.19;;;21.38;37.61
75627;BME280;67372;49.404;11.034;2023-04-22T10:16:19;97554.22;;;21.48;36.81
75627;BME280;67372;49.404;11.034;2023-04-22T10:18:47;97551.50;;;21.61;37.20
75627;BME280;67372;49.404;11.034;2023-04-22T10:21:16;97556.91;;;21.75;36.85
75627;BME280;67372;49.404;11.034;2023-04-22T10:23:47;97559.03;;;21.64;35.04
75627;BME280;67372;49.404;11.034;2023-04-22T10:29:07;97557.56;;;21.58;35.79
75627;BME280;67372;49.404;11.034;2023-04-22T10:31:36;97552.38;;;21.70;36.36
75627;BME280;67372;49.404;11.034;2023-04-22T10:34:10;97551.59;;;21.70;35.37
75627;BME280;67372;49.404;11.034;2023-04-22T10:37:04;97545.72;;;21.76;34.69
75627;BME280;67372;49.404;11.034;2023-04-22T10:39:32;97540.91;;;21.87;36.39
75627;BME280;67372;49.404;11.034;2023-04-22T10:44:30;97539.06;;;21.96;34.94
75627;BME280;67372;49.404;11.034;2023-04-22T10:47:09;97534.63;;;22.00;35.93
75627;BME280;67372;49.404;11.034;2023-04-22T10:49:36;97530.09;;;21.96;33.95
75627;BME280;67372;49.404;11.034;2023-04-22T10:52:04;97527.06;;;21.97;33.77
75627;BME280;67372;49.404;11.034;2023-04-22T10:57:06;97523.25;;;22.12;34.59
75627;BME280;67372;49.404;11.034;2023-04-22T10:59:51;97521.69;;;22.20;33.66
75627;BME280;67372;49.404;11.034;2023-04-22T11:02:19;97521.34;;;22.35;33.46
75627;BME280;67372;49.404;11.034;2023-04-22T11:04:47;97529.66;;;22.39;33.35
75627;BME280;67372;49.404;11.034;2023-04-22T11:09:40;97511.69;;;22.51;33.85
75627;BME280;67372;49.404;11.034;2023-04-22T11:15:13;97505.00;;;22.57;32.39
75627;BME280;67372;49.404;11.034;2023-04-22T11:17:48;97518.47;;;22.40;33.12
75627;BME280;67372;49.404;11.034;2023-04-22T11:20:15;97516.84;;;22.30;32.48
75627;BME280;67372;49.404;11.034;2023-04-22T11:22:44;97515.59;;;22.36;33.13
75627;BME280;67372;49.404;11.034;2023-04-22T11:25:11;97515.47;;;22.42;33.30
75627;BME280;67372;49.404;11.034;2023-04-22T11:27:39;97513.41;;;22.47;33.02
75627;BME280;67372;49.404;11.034;2023-04-22T11:32:40;97513.75;;;22.77;32.84
75627;BME280;67372;49.404;11.034;2023-04-22T11:35:09;97503.59;;;22.91;32.63
75627;BME280;67372;49.404;11.034;2023-04-22T11:37:53;97501.75;;;23.09;32.63
75627;BME280;67372;49.404;11.034;2023-04-22T11:40:22;97508.16;;;23.13;32.03
75627;BME280;67372;49.404;11.034;2023-04-22T11:42:58;97507.53;;;23.16;32.13
75627;BME280;67372;49.404;11.034;2023-04-22T11:45:26;97500.06;;;23.21;31.79
75627;BME280;67372;49.404;11.034;2023-04-22T11:47:53;97495.91;;;23.33;32.62
75627;BME280;67372;49.404;11.034;2023-04-22T11:50:22;97497.03;;;23.40;32.77
75627;BME280;67372;49.404;11.034;2023-04-22T11:53:03;97494.19;;;23.45;32.11
75627;BME280;67372;49.404;11.034;2023-04-22T11:55:31;97498.03;;;23.53;31.32
75627;BME280;67372;49.404;11.034;2023-04-22T12:00:57;97490.06;;;23.65;31.33
75627;BME280;67372;49.404;11.034;2023-04-22T12:03:26;97483.19;;;23.68;31.44
75627;BME280;67372;49.404;11.034;2023-04-22T12:05:57;97491.19;;;23.64;31.04
75627;BME280;67372;49.404;11.034;2023-04-22T12:08:34;97477.41;;;23.61;31.34
75627;BME280;67372;49.404;11.034;2023-04-22T12:11:04;97481.91;;;23.65;31.97
75627;BME280;67372;49.404;11.034;2023-04-22T12:13:33;97474.56;;;23.74;32.18
75627;BME280;67372;49.404;11.034;2023-04-22T12:16:26;97470.88;;;23.70;30.68
75627;BME280;67372;49.404;11.034;2023-04-22T12:18:54;97480.63;;;23.71;32.32
75627;BME280;67372;49.404;11.034;2023-04-22T12:21:25;97475.84;;;23.68;31.12
75627;BME280;67372;49.404;11.034;2023-04-22T12:23:53;97474.03;;;23.64;31.37
75627;BME280;67372;49.404;11.034;2023-04-22T12:26:22;97469.06;;;23.66;32.01
75627;BME280;67372;49.404;11.034;2023-04-22T12:28:53;97467.19;;;23.66;32.56
75627;BME280;67372;49.404;11.034;2023-04-22T12:31:19;97459.16;;;23.70;31.32
75627;BME280;67372;49.404;11.034;2023-04-22T12:33:46;97459.16;;;23.78;32.54
75627;BME280;67372;49.404;11.034;2023-04-22T12:36:12;97461.06;;;23.86;31.53
75627;BME280;67372;49.404;11.034;2023-04-22T12:38:39;97449.69;;;24.02;32.45
75627;BME280;67372;49.404;11.034;2023-04-22T12:41:06;97460.91;;;24.17;32.71
75627;BME280;67372;49.404;11.034;2023-04-22T12:43:33;97458.03;;;24.40;32.46
75627;BME280;67372;49.404;11.034;2023-04-22T12:45:59;97451.56;;;24.53;31.52
75627;BME280;67372;49.404;11.034;2023-04-22T12:48:26;97447.69;;;24.54;30.31
75627;BME280;67372;49.404;11.034;2023-04-22T12:50:52;97452.81;;;24.64;31.85
75627;BME280;67372;49.404;11.034;2023-04-22T12:53:20;97436.88;;;24.75;31.10
75627;BME280;67372;49.404;11.034;2023-04-22T12:55:47;97443.28;;;24.79;31.07
75627;BME280;67372;49.404;11.034;2023-04-22T12:58:13;97439.56;;;24.84;31.36
75627;BME280;67372;49.404;11.034;2023-04-22T13:00:39;97440.69;;;24.83;31.61
75627;BME280;67372;49.404;11.034;2023-04-22T13:03:06;97443.41;;;24.91;30.44
75627;BME280;67372;49.404;11.034;2023-04-22T13:05:33;97429.88;;;25.03;31.65
75627;BME280;67372;49.404;11.034;2023-04-22T13:07:59;97427.91;;;25.13;31.10
75627;BME280;67372;49.404;11.034;2023-04-22T13:10:33;97425.63;;;25.15;30.62
75627;BME280;67372;49.404;11.034;2023-04-22T13:12:59;97424.03;;;25.14;31.12
75627;BME280;67372;49.404;11.034;2023-04-22T13:15:42;97419.59;;;25.09;30.94